• Join FlightAware (Why Join?)
  • Login
  • US Flag 
10:44PM EDT


 

Airport Tracker/Info


-or-


 

Live Flight TrackerFlight Track Log ✈ USC105 ✈ 24-Apr-2013 ✈ KYIP - KDPA

Flight Track Log - Related Links

Times and Time Zones

All times are in EDT time to prevent confusion due to time zone crossing. See the USC105 flight status page for this flight to view local times or setup timezone preferences in your user account.

Time Position Orientation Groundspeed Altitude Reporting Facility
EDT Latitude Longitude Course Direction KTS MPH feet Rate Location/Type
12:16AM 42.2397 -83.5869 265° West 116 133 2,000  Level Cleveland Center
12:17AM 42.2364 -83.6317 264° West 121 139 2,700 600 Climbing Cleveland Center
12:19AM 42.2350 -83.6822 268° West 130 150 3,300 480 Climbing Cleveland Center
12:20AM 42.2314 -83.7353 265° West 133 153 3,800 480 Climbing Cleveland Center
12:21AM 42.2258 -83.7883 262° West 143 165 4,400 540 Climbing Cleveland Center
12:22AM 42.2244 -83.8417 268° West 148 170 4,900 420 Climbing Cleveland Center
12:24AM 42.2194 -83.9653 267° West 148 170 5,900 300 Climbing Chicago Center
12:25AM 42.2158 -84.0397 266° West 157 181 6,000  Climbing Chicago Center
12:26AM 42.2139 -84.1031 268° West 164 189 6,000  Level Chicago Center
12:27AM 42.2131 -84.1664 269° West 167 192 6,000  Level Chicago Center
12:28AM 42.2083 -84.2283 264° West 164 189 6,000  Level Chicago Center
12:29AM 42.2003 -84.2889 260° West 164 189 6,000  Level Chicago Center
12:30AM 42.1994 -84.3525 269° West 168 193 6,000  Level Chicago Center
12:31AM 42.1956 -84.4144 265° West 167 192 6,000  Level Chicago Center
12:32AM 42.1906 -84.4764 264° West 168 193 6,000  Level Chicago Center
12:33AM 42.1867 -84.5358 265° West 168 193 6,000  Level Chicago Center
12:34AM 42.1831 -84.5981 266° West 167 192 6,000  Level Chicago Center
12:35AM 42.1797 -84.6614 266° West 168 193 6,000  Level Chicago Center
12:36AM 42.1756 -84.7231 265° West 167 192 6,000  Level Chicago Center
12:37AM 42.1719 -84.7856 266° West 168 193 6,000  Level Chicago Center
12:38AM 42.1678 -84.8489 265° West 170 196 6,000  Level Chicago Center
12:39AM 42.1642 -84.9117 266° West 169 194 6,000  Level Chicago Center
12:40AM 42.1606 -84.9750 266° West 170 196 6,000  Level Chicago Center
12:41AM 42.1567 -85.0383 265° West 170 196 6,000  Level Chicago Center
12:42AM 42.1525 -85.1022 265° West 171 197 6,000  Level Chicago Center
12:43AM 42.1481 -85.1644 265° West 170 196 6,000  Level Chicago Center
12:44AM 42.1436 -85.2286 265° West 171 197 6,000  Level Chicago Center
12:45AM 42.1386 -85.3050 265° West 172 198 6,000  Level Chicago Center
12:46AM 42.1342 -85.3694 265° West 173 199 6,000  Level Chicago Center
12:47AM 42.1306 -85.4328 266° West 172 198 6,000  Level Chicago Center
12:48AM 42.1264 -85.4969 265° West 172 198 6,000  Level Chicago Center
12:49AM 42.1211 -85.5617 264° West 175 201 6,000  Level Chicago Center
12:50AM 42.1164 -85.6261 264° West 174 200 6,000  Level Chicago Center
12:51AM 42.1131 -85.6911 266° West 174 200 6,000  Level Chicago Center
12:52AM 42.1086 -85.7550 265° West 174 200 6,000  Level Chicago Center
12:53AM 42.1036 -85.8178 264° West 171 197 6,000  Level Chicago Center
12:54AM 42.0992 -85.8811 265° West 171 197 6,000  Level Chicago Center
12:55AM 42.0947 -85.9456 265° West 172 198 6,000  Level Chicago Center
12:56AM 42.0903 -86.0106 265° West 174 200 6,000  Level Chicago Center
12:57AM 42.0861 -86.0744 265° West 173 199 6,000  Level Chicago Center
12:58AM 42.0800 -86.1372 263° West 171 197 6,000  Level Chicago Center
12:59AM 42.0756 -86.2014 265° West 171 197 6,000  Level Chicago Center
01:00AM 42.0717 -86.2650 265° West 172 198 6,000  Level Chicago Center
01:01AM 42.0669 -86.3286 264° West 171 197 6,000  Level Chicago Center
01:02AM 42.0614 -86.3931 263° West 173 199 6,000  Level Chicago Center
01:03AM 42.0567 -86.4561 264° West 171 197 6,000  Level Chicago Center
01:04AM 42.0514 -86.5200 264° West 172 198 6,000  Level Chicago Center
01:05AM 42.0475 -86.5844 265° West 172 198 6,000  Level Chicago Center
01:06AM 42.0422 -86.6464 263° West 169 194 6,000  Level Chicago Center
01:07AM 42.0375 -86.7100 264° West 170 196 6,000  Level Chicago Center
01:08AM 42.0319 -86.7831 264° West 175 201 6,000  Level Chicago Center
01:09AM 42.0275 -86.8450 265° West 169 194 6,000  Level Chicago Center
01:10AM 42.0222 -86.9103 264° West 174 200 6,000  Level Chicago Center
01:11AM 42.0181 -86.9728 265° West 170 196 6,000  Level Chicago Center
01:12AM 42.0128 -87.0361 264° West 171 197 6,000  Level Chicago Center
01:13AM 42.0072 -87.0969 263° West 166 191 6,000  Level Chicago Center
01:14AM 42.0019 -87.1600 264° West 168 193 6,000  Level Chicago Center
01:15AM 41.9969 -87.2214 264° West 168 193 6,000  Level Chicago Center
01:16AM 41.9914 -87.2839 263° West 170 196 6,000  Level Chicago Center
01:17AM 41.9858 -87.3447 263° West 167 192 6,000  Level Chicago Center
01:18AM 41.9817 -87.4044 265° West 163 188 6,000  Level Chicago Center
01:19AM 41.9667 -87.4833 256° West 167 192 6,000  Level Chicago TRACON
01:20AM 41.9667 -87.5333 270° West 164 189 6,000  Level Chicago TRACON
01:21AM 41.9667 -87.5833 270° West 165 190 6,000  Level Chicago TRACON
01:22AM 41.9667 -87.6500 270° West 164 189 6,000  Level Chicago TRACON
01:23AM 41.9500 -87.7167 251° West 160 184 6,000  Level Chicago TRACON
01:24AM 41.9500 -87.7667 270° West 159 183 6,000  Level Chicago TRACON
01:25AM 41.9500 -87.8333 270° West 160 184 6,000  Level Chicago TRACON
01:26AM 41.9333 -87.8833 246° West 151 174 6,000 -180 Level Chicago TRACON
01:27AM 41.9333 -87.9333 270° West 174 200 5,700 -660 Descending Chicago TRACON
01:28AM 41.9333 -88.0000 270° West 181 208 4,700 -1,080 Descending Chicago TRACON
01:29AM 41.9333 -88.0667 270° West 179 206 3,600 -1,200 Descending Chicago TRACON
01:30AM 41.9167 -88.1333 251° West 173 199 2,300 -960 Descending Chicago TRACON
01:31AM 41.9072 -88.1925 258° West 154 177 1,700 -600 Descending Chicago Center
01:32AM 41.9106 -88.2275 277° West 120 138 1,100 -600 Descending Chicago Center
01:34AM 41.9000 -88.2333 270° West  Level FlightAware Approximate